Time;durP1;ratioP1;P1;durP2;ratioP2;P2;SDS_P1;SDS_P2;PMS_P1;PMS_P2;Temp;Humidity;BMP_temperature;BMP_pressure;BME280_temperature;BME280_humidity;BME280_pressure;Samples;Min_cycle;Max_cycle;Signal;HPM_P1;HPM_P2
2023/02/20 00:03:50;;;;;;;10.10;3.40;;;;;;;3.03;94.34;100897.20;186176;1234;59218;-87
2023/02/20 00:07:53;;;;;;;5.60;3.50;;;;;;;3.14;94.44;100892.73;186268;1237;43945;-88
2023/02/20 00:11:56;;;;;;;4.00;2.80;;;;;;;3.21;93.94;100888.27;186087;1234;43724;-88
2023/02/20 00:15:58;;;;;;;11.10;3.60;;;;;;;3.29;93.74;100891.42;186257;1236;43998;-89
2023/02/20 00:20:01;;;;;;;7.30;2.60;;;;;;;3.35;93.45;100886.96;186285;1236;43703;-89
2023/02/20 00:24:03;;;;;;;3.30;2.00;;;;;;;3.44;93.67;100878.88;186367;1235;60350;-89
2023/02/20 00:28:05;;;;;;;6.90;3.50;;;;;;;3.54;93.36;100868.98;186286;1234;43669;-89
2023/02/20 00:32:07;;;;;;;4.90;2.30;;;;;;;3.60;92.92;100861.54;186100;1235;43722;-89
2023/02/20 00:36:18;;;;;;;3.90;2.40;;;;;;;3.68;92.51;100854.17;186287;1233;43714;-88
2023/02/20 00:40:23;;;;;;;4.70;1.60;;;;;;;3.76;91.82;100855.06;186190;1234;43695;-87
2023/02/20 00:44:25;;;;;;;4.90;2.70;;;;;;;3.80;91.38;100847.69;186348;1234;59448;-88
2023/02/20 00:48:27;;;;;;;3.90;2.10;;;;;;;3.84;91.08;100846.11;186246;1234;43806;-89
2023/02/20 00:52:29;;;;;;;3.50;2.50;;;;;;;3.91;91.12;100846.14;186138;1235;43706;-88
2023/02/20 00:56:31;;;;;;;2.60;2.00;;;;;;;3.93;91.22;100845.52;186212;1235;43852;-88
2023/02/20 01:00:33;;;;;;;5.30;2.30;;;;;;;3.94;90.99;100852.54;186217;1234;44039;-87
2023/02/20 01:04:36;;;;;;;6.00;2.10;;;;;;;3.99;90.98;100852.44;186219;1234;59430;-87
2023/02/20 01:08:39;;;;;;;3.00;1.60;;;;;;;4.02;90.61;100851.81;186062;1232;44087;-88
2023/02/20 01:12:41;;;;;;;3.40;2.50;;;;;;;4.03;90.54;100846.70;186257;1234;43836;-88
2023/02/20 01:16:45;;;;;;;2.90;2.60;;;;;;;4.03;90.54;100841.42;186161;1234;43974;-88
2023/02/20 01:20:48;;;;;;;5.80;2.10;;;;;;;4.02;90.75;100838.31;186369;1235;43692;-87
2023/02/20 01:24:51;;;;;;;10.20;2.60;;;;;;;4.04;91.01;100831.38;186229;1235;59428;-88
2023/02/20 01:28:53;;;;;;;3.20;2.00;;;;;;;4.06;91.07;100827.60;186423;1234;44007;-89
2023/02/20 01:32:56;;;;;;;3.80;1.70;;;;;;;4.02;90.85;100817.75;186412;1234;43763;-89
2023/02/20 01:36:59;;;;;;;2.10;1.90;;;;;;;3.97;90.54;100815.19;186535;1234;43778;-89
2023/02/20 01:41:02;;;;;;;5.40;2.70;;;;;;;3.91;90.35;100802.65;186300;1234;43717;-89
2023/02/20 01:45:16;;;;;;;6.70;2.90;;;;;;;3.86;90.26;100796.20;186570;1235;58198;-89
2023/02/20 01:49:24;;;;;;;5.10;2.00;;;;;;;3.80;89.91;100782.23;186265;1235;43806;-89
2023/02/20 01:53:29;;;;;;;3.30;1.20;;;;;;;3.73;89.88;100783.45;186483;1233;43836;-89
2023/02/20 01:57:34;;;;;;;4.60;2.10;;;;;;;3.74;90.01;100796.73;186424;1234;43965;-89
2023/02/20 02:01:37;;;;;;;1.60;1.30;;;;;;;3.74;89.98;100800.59;186303;1236;44000;-89
2023/02/20 02:05:46;;;;;;;3.90;1.10;;;;;;;3.66;90.22;100792.54;186382;1233;58395;-89
2023/02/20 02:09:58;;;;;;;5.90;2.10;;;;;;;3.57;90.61;100784.86;186134;1233;43759;-89
2023/02/20 02:14:00;;;;;;;5.80;3.00;;;;;;;3.52;90.78;100790.86;186420;1233;43727;-89
2023/02/20 02:18:27;;;;;;;4.70;2.10;;;;;;;3.51;91.00;100787.05;186189;1233;43670;-87
2023/02/20 02:22:49;;;;;;;6.40;1.80;;;;;;;3.44;91.11;100780.67;186382;1233;43721;-88
2023/02/20 02:27:21;;;;;;;7.70;3.50;;;;;;;3.48;91.42;100772.61;186408;1235;59201;-88
2023/02/20 02:31:36;;;;;;;4.20;1.90;;;;;;;3.43;91.17;100746.17;186624;1233;43764;-89
2023/02/20 02:36:05;;;;;;;6.40;3.30;;;;;;;3.34;91.68;100738.69;186547;1235;43827;-89
2023/02/20 02:40:25;;;;;;;5.80;2.20;;;;;;;3.33;92.06;100736.13;186487;1234;43742;-89
2023/02/20 02:44:41;;;;;;;7.30;3.20;;;;;;;3.27;92.40;100724.98;186447;1235;43658;-89
2023/02/20 02:49:02;;;;;;;5.00;2.60;;;;;;;3.27;92.65;100723.40;186436;1233;59946;-90
2023/02/20 02:53:08;;;;;;;2.90;2.40;;;;;;;3.28;92.64;100728.98;186417;1234;43611;-89
2023/02/20 02:57:25;;;;;;;11.70;3.10;;;;;;;3.28;92.55;100739.11;186376;1233;43711;-89
2023/02/20 03:01:29;;;;;;;7.10;4.00;;;;;;;3.29;92.58;100737.88;186177;1232;43609;-88
2023/02/20 03:05:39;;;;;;;6.00;4.00;;;;;;;3.28;92.68;100731.92;186539;1233;43643;-89
2023/02/20 03:09:47;;;;;;;5.40;2.40;;;;;;;3.29;93.16;100722.44;186279;1232;57816;-89
2023/02/20 03:18:28;;;;;;;5.00;2.90;;;;;;;3.28;95.12;100703.90;186306;1236;43723;-89
2023/02/20 03:22:35;;;;;;;7.10;4.00;;;;;;;3.39;95.44;100698.88;186179;1234;43805;-89
2023/02/20 03:26:40;;;;;;;4.90;3.20;;;;;;;3.51;95.33;100696.73;186242;1233;43798;-89
2023/02/20 03:30:54;;;;;;;3.70;3.00;;;;;;;3.62;94.74;100700.98;186193;1233;58102;-89
2023/02/20 03:43:46;;;;;;;3.10;2.10;;;;;;;4.07;93.40;100706.44;185846;1233;565842;-89
2023/02/20 03:47:53;;;;;;;7.20;2.90;;;;;;;4.09;92.20;100699.09;186229;1232;43703;-89
2023/02/20 03:52:00;;;;;;;4.20;3.20;;;;;;;4.08;91.64;100691.63;186217;1232;59113;-89
2023/02/20 03:56:09;;;;;;;3.10;1.80;;;;;;;4.11;91.26;100688.52;186359;1232;43734;-89
2023/02/20 04:00:17;;;;;;;4.80;2.40;;;;;;;4.11;90.80;100684.45;186332;1233;43847;-89
2023/02/20 04:04:27;;;;;;;4.00;3.30;;;;;;;4.14;90.72;100668.37;186304;1234;43732;-88
2023/02/20 04:08:40;;;;;;;5.20;3.50;;;;;;;4.20;90.66;100661.91;186267;1234;43756;-88
2023/02/20 04:12:44;;;;;;;7.20;4.70;;;;;;;4.26;90.54;100651.08;186275;1232;57768;-90
2023/02/20 04:16:51;;;;;;;3.60;2.00;;;;;;;4.31;90.80;100659.11;186171;1234;43657;-87
2023/02/20 04:20:56;;;;;;;8.40;3.50;;;;;;;4.29;91.18;100661.46;186233;1233;43823;-88
2023/02/20 04:25:26;;;;;;;3.40;2.50;;;;;;;4.35;91.42;100661.20;186416;1232;44273;-88
2023/02/20 04:29:28;;;;;;;4.10;2.70;;;;;;;4.41;92.07;100659.15;186010;1234;43660;-87
2023/02/20 04:33:29;;;;;;;6.20;3.30;;;;;;;4.47;92.28;100663.06;186196;1232;59331;-88
2023/02/20 04:37:32;;;;;;;3.90;3.00;;;;;;;4.54;92.18;100656.55;186104;1233;44379;-87
2023/02/20 04:41:34;;;;;;;9.60;2.80;;;;;;;4.61;92.13;100647.26;186290;1233;43973;-87
2023/02/20 04:45:36;;;;;;;4.10;2.90;;;;;;;4.69;92.39;100639.94;186067;1233;43609;-88
2023/02/20 04:49:38;;;;;;;3.20;3.00;;;;;;;4.72;92.12;100630.18;186101;1234;43760;-88
2023/02/20 04:53:40;;;;;;;5.10;2.40;;;;;;;4.74;92.21;100623.05;186249;1234;57194;-87
2023/02/20 04:57:42;;;;;;;6.40;3.10;;;;;;;4.77;92.37;100626.61;186200;1232;43749;-88
2023/02/20 05:01:48;;;;;;;8.80;3.60;;;;;;;4.76;92.60;100620.14;186132;1232;43731;-86
2023/02/20 05:05:51;;;;;;;6.00;4.10;;;;;;;4.80;93.27;100622.39;186256;1232;43776;-88
2023/02/20 05:09:53;;;;;;;4.40;2.30;;;;;;;4.82;93.50;100617.17;186118;1234;43752;-87
2023/02/20 05:13:56;;;;;;;4.40;3.20;;;;;;;4.84;93.99;100616.91;186008;1234;59139;-89
2023/02/20 05:17:59;;;;;;;5.90;3.40;;;;;;;4.85;94.55;100617.37;186270;1234;43653;-89
2023/02/20 05:22:20;;;;;;;5.50;4.00;;;;;;;4.85;95.00;100603.48;186482;1232;43665;-89
2023/02/20 05:26:22;;;;;;;7.90;4.50;;;;;;;4.87;95.53;100602.71;186212;1233;43749;-90
2023/02/20 05:30:26;;;;;;;5.00;3.60;;;;;;;4.87;95.99;100604.62;186246;1232;43755;-90
2023/02/20 05:34:28;;;;;;;6.30;4.00;;;;;;;4.93;96.21;100595.19;186180;1234;58218;-88
2023/02/20 05:38:30;;;;;;;4.50;4.10;;;;;;;4.97;96.01;100592.34;185946;1233;43956;-88
2023/02/20 05:42:32;;;;;;;9.60;4.40;;;;;;;4.96;96.44;100592.91;186241;1234;43705;-90
2023/02/20 05:46:40;;;;;;;9.10;4.30;;;;;;;4.96;96.34;100592.88;186123;1234;43699;-89
2023/02/20 05:50:42;;;;;;;5.20;3.10;;;;;;;4.98;96.23;100590.17;186410;1232;43827;-89
2023/02/20 05:54:45;;;;;;;4.10;3.70;;;;;;;5.00;96.21;100589.36;186138;1234;60486;-90
2023/02/20 05:58:48;;;;;;;4.30;2.70;;;;;;;5.03;96.21;100583.77;186150;1233;43827;-88
2023/02/20 06:02:52;;;;;;;6.70;3.70;;;;;;;5.00;96.45;100577.02;186197;1235;44219;-88
2023/02/20 06:06:55;;;;;;;7.70;3.90;;;;;;;5.01;96.37;100570.69;186272;1233;43957;-89
2023/02/20 06:10:57;;;;;;;4.60;2.90;;;;;;;5.00;96.62;100563.33;186324;1233;43972;-89
2023/02/20 06:14:59;;;;;;;8.60;4.70;;;;;;;5.03;96.61;100555.61;186333;1234;59458;-90
2023/02/20 06:19:01;;;;;;;5.80;3.50;;;;;;;5.12;96.30;100556.88;186250;1234;43730;-88
2023/02/20 06:23:03;;;;;;;4.90;3.10;;;;;;;5.21;96.40;100555.88;186202;1233;43692;-89
2023/02/20 06:27:07;;;;;;;4.20;2.70;;;;;;;5.27;96.31;100552.77;186327;1234;43921;-90
2023/02/20 06:31:10;;;;;;;7.30;4.20;;;;;;;5.34;96.51;100550.80;186267;1232;44116;-89
2023/02/20 06:35:12;;;;;;;7.30;3.30;;;;;;;5.51;96.06;100544.70;186213;1233;58828;-89
2023/02/20 06:39:14;;;;;;;4.10;3.20;;;;;;;5.63;95.66;100537.76;186253;1234;43787;-89
2023/02/20 06:43:17;;;;;;;6.30;4.40;;;;;;;5.72;95.63;100541.44;186248;1232;43712;-89
2023/02/20 06:47:18;;;;;;;5.30;4.00;;;;;;;5.81;95.60;100544.11;186394;1234;43909;-90
2023/02/20 06:51:23;;;;;;;3.90;3.50;;;;;;;5.85;95.71;100525.51;186234;1233;43793;-89
2023/02/20 06:55:25;;;;;;;6.50;3.50;;;;;;;5.95;95.99;100521.64;186312;1233;59217;-89
2023/02/20 06:59:27;;;;;;;4.90;4.30;;;;;;;6.07;95.94;100520.65;186234;1233;43674;-89
2023/02/20 07:03:29;;;;;;;5.80;3.00;;;;;;;6.18;96.02;100524.70;186266;1234;44119;-89
2023/02/20 07:07:31;;;;;;;4.10;3.30;;;;;;;6.30;95.78;100517.34;186136;1233;44062;-89
2023/02/20 07:11:33;;;;;;;5.30;4.90;;;;;;;6.39;96.01;100512.89;186227;1234;44005;-89
2023/02/20 07:15:35;;;;;;;6.30;4.30;;;;;;;6.46;96.11;100510.01;186150;1234;60442;-88
2023/02/20 07:19:37;;;;;;;5.90;4.90;;;;;;;6.56;96.22;100512.96;186198;1233;43746;-89
2023/02/20 07:23:39;;;;;;;5.70;4.00;;;;;;;6.63;96.25;100495.23;186348;1233;43713;-89
2023/02/20 07:27:41;;;;;;;7.20;5.50;;;;;;;6.71;96.47;100487.38;186235;1234;43699;-89
2023/02/20 07:31:43;;;;;;;6.50;5.80;;;;;;;6.83;96.78;100476.23;186190;1233;43720;-88
2023/02/20 07:35:45;;;;;;;7.40;5.40;;;;;;;6.90;96.53;100457.99;186167;1233;59031;-89
2023/02/20 07:39:47;;;;;;;6.90;6.10;;;;;;;7.02;95.77;100442.24;186229;1235;43648;-89
2023/02/20 07:43:50;;;;;;;9.30;5.70;;;;;;;7.15;95.32;100433.77;186310;1234;43714;-89
2023/02/20 07:47:52;;;;;;;8.00;5.20;;;;;;;7.32;94.97;100426.88;186136;1233;43899;-89
2023/02/20 07:51:54;;;;;;;9.50;6.40;;;;;;;7.44;94.93;100415.14;186220;1233;43722;-89
2023/02/20 07:55:57;;;;;;;5.40;4.10;;;;;;;7.54;94.49;100416.08;186154;1234;58325;-89
2023/02/20 07:59:59;;;;;;;9.80;6.30;;;;;;;7.62;93.93;100413.10;186280;1233;43770;-89
2023/02/20 08:04:01;;;;;;;7.60;5.70;;;;;;;7.70;93.76;100415.35;186151;1232;43615;-89
2023/02/20 08:08:03;;;;;;;5.00;4.10;;;;;;;7.74;93.24;100412.63;186195;1233;43886;-88
2023/02/20 08:12:05;;;;;;;7.30;5.30;;;;;;;7.77;93.06;100407.16;186328;1233;43729;-89
2023/02/20 08:16:07;;;;;;;9.70;5.60;;;;;;;7.82;93.28;100406.64;186238;1233;57945;-88
2023/02/20 08:20:09;;;;;;;7.50;4.80;;;;;;;7.83;93.31;100401.65;186472;1234;44047;-87
2023/02/20 08:24:10;;;;;;;9.80;6.10;;;;;;;7.89;93.17;100409.89;186173;1233;43759;-89
2023/02/20 08:28:13;;;;;;;8.50;6.20;;;;;;;7.99;93.04;100398.77;186218;1233;43648;-88
2023/02/20 08:32:15;;;;;;;5.90;4.60;;;;;;;8.08;93.14;100387.73;186114;1233;43968;-88
2023/02/20 08:36:17;;;;;;;6.70;5.50;;;;;;;8.18;92.81;100374.52;186073;1232;59445;-89
2023/02/20 08:40:19;;;;;;;10.80;6.30;;;;;;;8.34;92.33;100361.34;186219;1234;43738;-88
2023/02/20 08:44:21;;;;;;;7.30;5.40;;;;;;;8.49;90.52;100344.79;186258;1233;43828;-88
2023/02/20 08:48:23;;;;;;;8.80;5.70;;;;;;;8.51;89.85;100337.02;186252;1233;43725;-88
2023/02/20 08:52:25;;;;;;;7.00;5.00;;;;;;;8.48;88.62;100335.29;186272;1232;43731;-87
2023/02/20 08:56:27;;;;;;;9.10;4.90;;;;;;;8.52;90.22;100335.88;186208;1233;59108;-89
2023/02/20 09:00:29;;;;;;;7.00;5.00;;;;;;;8.65;90.76;100326.98;186223;1233;43738;-88
2023/02/20 09:04:31;;;;;;;7.80;5.00;;;;;;;8.82;88.98;100319.73;186311;1233;44022;-89
2023/02/20 09:08:33;;;;;;;11.10;6.40;;;;;;;9.01;88.45;100312.52;186431;1233;44206;-88
2023/02/20 09:12:35;;;;;;;8.90;7.10;;;;;;;9.19;87.44;100308.39;186255;1232;44164;-88
2023/02/20 09:16:40;;;;;;;8.00;6.90;;;;;;;9.32;86.51;100293.91;186571;1233;59402;-89
2023/02/20 09:20:42;;;;;;;7.60;6.00;;;;;;;9.46;85.19;100270.39;186209;1237;44088;-89
2023/02/20 09:24:46;;;;;;;6.10;4.70;;;;;;;9.61;84.92;100263.38;186326;1234;43980;-88
2023/02/20 09:28:48;;;;;;;8.50;5.30;;;;;;;9.52;84.14;100265.35;186429;1234;43871;-88
2023/02/20 09:32:50;;;;;;;5.20;4.50;;;;;;;9.39;84.54;100260.48;186158;1233;43675;-88
2023/02/20 09:36:52;;;;;;;6.40;5.50;;;;;;;9.29;84.80;100244.06;186212;1233;58137;-88
2023/02/20 09:40:58;;;;;;;6.80;4.30;;;;;;;9.15;84.37;100235.73;186115;1232;43806;-88
2023/02/20 09:45:23;;;;;;;4.70;4.10;;;;;;;9.24;84.44;100239.81;186271;1236;43859;-88
2023/02/20 09:49:32;;;;;;;10.30;5.00;;;;;;;9.34;84.45;100234.34;186093;1234;43753;-88
2023/02/20 09:53:50;;;;;;;5.30;3.90;;;;;;;9.45;84.67;100233.30;186209;1232;44046;-88
2023/02/20 09:57:55;;;;;;;6.60;4.80;;;;;;;9.57;83.35;100202.27;186260;1233;57890;-88
2023/02/20 10:02:11;;;;;;;5.50;3.50;;;;;;;9.81;83.20;100191.00;186104;1232;43772;-89
2023/02/20 10:06:17;;;;;;;5.30;3.30;;;;;;;10.10;82.00;100171.32;186462;1233;43700;-88
2023/02/20 10:10:24;;;;;;;3.50;2.50;;;;;;;10.35;80.32;100169.25;186131;1233;43656;-88
2023/02/20 10:14:51;;;;;;;3.40;2.80;;;;;;;10.59;80.57;100146.27;186154;1233;43716;-89
2023/02/20 10:19:00;;;;;;;;;;;;;;;10.70;78.35;100133.41;186131;1233;58032;-88
2023/02/20 10:23:25;;;;;;;4.20;2.70;;;;;;;10.78;77.86;100130.52;186276;1233;43724;-89
2023/02/20 10:27:45;;;;;;;3.70;2.70;;;;;;;10.78;77.31;100109.52;185262;1240;43879;-89
2023/02/20 10:32:07;;;;;;;3.40;2.90;;;;;;;10.78;76.31;100109.35;185287;1239;43828;-89
2023/02/20 10:36:21;;;;;;;3.90;2.70;;;;;;;10.77;76.67;100107.11;185139;1240;43867;-89
2023/02/20 10:40:46;;;;;;;4.70;2.30;;;;;;;10.83;75.79;100100.99;185405;1239;59349;-87
2023/02/20 10:45:09;;;;;;;5.00;2.20;;;;;;;10.71;75.97;100080.65;185258;1240;44146;-89
2023/02/20 10:49:16;;;;;;;4.00;2.30;;;;;;;10.67;75.26;100079.41;185166;1239;44031;-89
2023/02/20 10:53:17;;;;;;;3.10;2.50;;;;;;;10.70;76.50;100094.40;185209;1239;44184;-89
2023/02/20 10:57:27;;;;;;;4.40;2.20;;;;;;;10.77;74.99;100084.58;185273;1240;43745;-88
2023/02/20 11:01:31;;;;;;;4.60;2.70;;;;;;;10.82;74.90;100072.70;185283;1240;57974;-86
2023/02/20 11:05:40;;;;;;;4.60;2.90;;;;;;;10.83;73.89;100078.59;186482;1232;43734;-87
2023/02/20 11:09:41;;;;;;;2.30;2.10;;;;;;;10.83;74.92;100069.21;186332;1233;43960;-89
2023/02/20 11:13:43;;;;;;;4.40;2.30;;;;;;;10.80;73.91;100053.17;186317;1234;44018;-88
2023/02/20 11:17:50;;;;;;;4.40;2.30;;;;;;;10.74;72.64;100041.21;186304;1233;43983;-89
2023/02/20 11:21:52;;;;;;;3.10;2.60;;;;;;;10.81;73.60;100029.80;186237;1233;58376;-88
2023/02/20 11:25:54;;;;;;;3.30;2.60;;;;;;;10.85;73.89;100017.80;186312;1233;43770;-89
2023/02/20 11:30:34;;;;;;;6.80;2.50;;;;;;;10.92;72.73;100013.26;186330;1234;43684;-89
2023/02/20 11:34:36;;;;;;;3.00;2.80;;;;;;;10.95;72.94;100000.96;185209;1241;43933;-89
2023/02/20 11:38:39;;;;;;;4.10;2.70;;;;;;;10.95;72.96;99992.02;185066;1241;43710;-86
2023/02/20 11:42:42;;;;;;;3.10;1.90;;;;;;;10.97;73.05;99982.68;185114;1241;57932;-88
2023/02/20 11:46:46;;;;;;;7.00;3.00;;;;;;;11.01;72.71;99972.18;184977;1243;44157;-89
2023/02/20 11:50:52;;;;;;;2.40;2.20;;;;;;;11.11;73.11;99959.81;185021;1242;43783;-89
2023/02/20 11:55:11;;;;;;;2.80;1.90;;;;;;;11.23;72.08;99946.30;184952;1242;43941;-88
2023/02/20 11:59:27;;;;;;;4.70;2.20;;;;;;;11.35;71.13;99922.45;185150;1242;43854;-88
2023/02/20 12:03:33;;;;;;;2.80;1.80;;;;;;;11.36;71.57;99914.77;185238;1243;57928;-89
2023/02/20 12:07:38;;;;;;;1.70;1.50;;;;;;;11.35;70.33;99893.42;185669;1234;43797;-89
2023/02/20 12:11:40;;;;;;;6.20;1.90;;;;;;;11.37;70.86;99888.56;186294;1232;43772;-89
2023/02/20 12:16:06;;;;;;;2.30;1.90;;;;;;;11.40;70.90;99878.03;186076;1233;43800;-89
2023/02/20 12:20:17;;;;;;;1.60;1.20;;;;;;;11.52;70.44;99863.77;186163;1233;43770;-89
2023/02/20 12:25:01;;;;;;;5.10;1.80;;;;;;;11.55;69.82;99849.08;186503;1232;57988;-89
2023/02/20 12:29:11;;;;;;;3.50;1.70;;;;;;;11.61;70.44;99833.64;186505;1236;44064;-89
2023/02/20 12:33:31;;;;;;;3.80;2.30;;;;;;;11.69;69.74;99823.80;186539;1233;43695;-89
2023/02/20 12:37:57;;;;;;;3.90;1.80;;;;;;;11.75;68.84;99819.36;186517;1234;43930;-88
2023/02/20 12:42:11;;;;;;;1.80;1.70;;;;;;;11.87;69.17;99815.48;186544;1233;43826;-88
2023/02/20 12:46:25;;;;;;;2.30;2.10;;;;;;;12.06;69.00;99807.27;186295;1233;57028;-88
2023/02/20 12:50:43;;;;;;;4.30;1.90;;;;;;;12.22;69.81;99805.40;186254;1234;43752;-89
2023/02/20 12:54:54;;;;;;;5.50;2.00;;;;;;;12.22;67.56;99793.80;186595;1234;43690;-89
2023/02/20 12:59:23;;;;;;;3.00;1.50;;;;;;;12.29;67.89;99785.90;186393;1234;43775;-89
2023/02/20 13:03:40;;;;;;;2.40;1.70;;;;;;;12.27;67.73;99771.32;186362;1234;43765;-88
2023/02/20 13:08:00;;;;;;;1.60;1.50;;;;;;;12.28;68.91;99769.30;186294;1234;59538;-88
2023/02/20 13:12:11;;;;;;;2.40;1.70;;;;;;;12.32;68.03;99752.87;186293;1233;43909;-89
2023/02/20 13:16:21;;;;;;;2.80;2.20;;;;;;;12.43;67.45;99738.31;186275;1234;43687;-89
2023/02/20 13:20:37;;;;;;;2.50;1.50;;;;;;;12.45;66.76;99725.34;186470;1233;44035;-88
2023/02/20 13:24:40;;;;;;;1.70;1.60;;;;;;;12.45;67.79;99728.37;186138;1233;44129;-89
2023/02/20 13:28:44;;;;;;;1.90;1.50;;;;;;;12.48;67.30;99714.92;186178;1234;59232;-89
2023/02/20 13:32:46;;;;;;;3.10;1.20;;;;;;;12.49;66.63;99689.36;186338;1233;43735;-89
2023/02/20 13:36:49;;;;;;;2.00;1.30;;;;;;;12.61;66.92;99705.06;186325;1236;43768;-89
2023/02/20 13:40:54;;;;;;;2.10;1.50;;;;;;;12.65;68.12;99720.34;186077;1234;43845;-88
2023/02/20 13:44:56;;;;;;;3.70;1.70;;;;;;;12.64;67.50;99705.44;186564;1234;43709;-89
2023/02/20 13:48:57;;;;;;;1.40;1.00;;;;;;;12.65;67.83;99714.98;186242;1233;59448;-89
2023/02/20 13:53:01;;;;;;;2.90;1.60;;;;;;;12.58;67.94;99720.27;186109;1234;43786;-88
2023/02/20 13:57:16;;;;;;;6.90;3.10;;;;;;;12.54;68.03;99733.86;186141;1234;43635;-89
2023/02/20 14:01:18;;;;;;;3.90;1.90;;;;;;;12.56;69.11;99741.31;186330;1234;43675;-89
2023/02/20 14:05:23;;;;;;;3.50;1.60;;;;;;;12.52;69.17;99732.27;186252;1233;43671;-88
2023/02/20 14:09:30;;;;;;;5.50;1.50;;;;;;;12.47;69.87;99738.27;186555;1233;59259;-89
2023/02/20 14:13:33;;;;;;;4.10;1.80;;;;;;;12.47;70.32;99709.95;186260;1234;43720;-86
2023/02/20 14:17:42;;;;;;;3.80;2.40;;;;;;;12.62;71.14;99708.85;186138;1233;43746;-85
2023/02/20 14:21:43;;;;;;;3.50;2.90;;;;;;;12.76;72.03;99708.55;186234;1232;44052;-85
2023/02/20 14:25:58;;;;;;;3.30;1.90;;;;;;;12.84;71.72;99698.45;186265;1233;44038;-86
2023/02/20 14:30:16;;;;;;;5.30;2.40;;;;;;;12.87;71.26;99686.94;186246;1235;59417;-86
2023/02/20 14:34:34;;;;;;;3.30;1.60;;;;;;;12.89;71.59;99680.71;186250;1234;43738;-85
2023/02/20 14:38:58;;;;;;;3.20;1.80;;;;;;;12.95;71.75;99673.41;186148;1232;43866;-84
2023/02/20 14:43:02;;;;;;;3.40;1.50;;;;;;;12.95;70.30;99661.30;186434;1234;44368;-85
2023/02/20 14:47:22;;;;;;;1.70;1.50;;;;;;;13.00;70.81;99664.11;186226;1234;43762;-86
2023/02/20 14:51:24;;;;;;;1.00;0.70;;;;;;;13.00;70.74;99669.67;186436;1234;58136;-87
2023/02/20 14:55:26;;;;;;;1.90;1.40;;;;;;;13.06;72.22;99669.64;186204;1234;43694;-86
2023/02/20 14:59:34;;;;;;;2.80;1.50;;;;;;;12.96;71.82;99671.65;186208;1234;43773;-86
2023/02/20 15:03:35;;;;;;;6.60;1.60;;;;;;;12.98;72.28;99670.54;186314;1234;43643;-86
2023/02/20 15:07:39;;;;;;;4.40;1.10;;;;;;;12.96;71.79;99650.48;186183;1234;43689;-86
2023/02/20 15:11:55;;;;;;;2.40;0.80;;;;;;;12.95;72.19;99674.11;186169;1236;59128;-87
2023/02/20 15:16:19;;;;;;;0.70;0.70;;;;;;;12.99;72.26;99687.05;186022;1233;44097;-86
2023/02/20 15:20:48;;;;;;;4.50;1.80;;;;;;;12.91;72.54;99684.29;186301;1234;43751;-86
2023/02/20 15:24:50;;;;;;;2.30;1.10;;;;;;;12.95;72.31;99652.75;186357;1234;45559;-86
2023/02/20 15:29:11;;;;;;;1.90;0.70;;;;;;;12.93;73.13;99672.99;186044;1236;44272;-86
2023/02/20 15:33:12;;;;;;;1.60;1.30;;;;;;;12.81;73.44;99670.14;186169;1235;58232;-86
2023/02/20 15:37:24;;;;;;;1.60;1.20;;;;;;;12.85;73.68;99687.35;186377;1236;43779;-86
2023/02/20 15:41:41;;;;;;;2.80;1.10;;;;;;;12.76;73.96;99700.34;186195;1234;231112;-86
2023/02/20 15:45:42;;;;;;;1.50;1.40;;;;;;;12.69;74.74;99705.17;186235;1237;43793;-85
2023/02/20 15:49:44;;;;;;;2.60;1.70;;;;;;;12.65;74.99;99721.41;186215;1234;43769;-86
2023/02/20 15:53:46;;;;;;;1.60;1.40;;;;;;;12.55;74.89;99730.37;186199;1234;59357;-87
2023/02/20 15:57:53;;;;;;;4.10;1.70;;;;;;;12.59;75.67;99743.88;186158;1235;43717;-86
2023/02/20 16:01:55;;;;;;;5.70;2.30;;;;;;;12.46;75.64;99755.56;186025;1233;43877;-86
2023/02/20 16:05:57;;;;;;;2.20;1.60;;;;;;;12.49;75.04;99752.15;186207;1234;43989;-86
2023/02/20 16:09:59;;;;;;;5.00;2.40;;;;;;;12.56;75.00;99751.38;186167;1234;43701;-86
2023/02/20 16:14:01;;;;;;;2.80;1.50;;;;;;;12.49;76.13;99756.58;186417;1234;58268;-86
2023/02/20 16:18:04;;;;;;;2.00;1.50;;;;;;;12.30;77.56;99757.82;186106;1235;43868;-87
2023/02/20 16:22:08;;;;;;;3.40;1.70;;;;;;;12.23;78.29;99767.13;186153;1233;43852;-88
2023/02/20 16:26:10;;;;;;;5.20;2.00;;;;;;;12.17;77.91;99763.45;186038;1236;44271;-87
2023/02/20 16:30:20;;;;;;;2.30;1.60;;;;;;;12.16;78.22;99772.37;186234;1235;43876;-86
2023/02/20 16:34:36;;;;;;;3.70;1.70;;;;;;;12.09;79.84;99774.85;186240;1235;59582;-84
2023/02/20 16:38:38;;;;;;;1.80;1.60;;;;;;;11.96;79.28;99785.93;186046;1235;43927;-85
2023/02/20 16:42:41;;;;;;;2.40;1.80;;;;;;;11.96;79.80;99802.52;186184;1233;43768;-86
2023/02/20 16:46:43;;;;;;;4.00;2.50;;;;;;;11.89;80.56;99793.76;186139;1233;43753;-85
2023/02/20 16:50:50;;;;;;;5.70;2.50;;;;;;;11.85;81.97;99796.44;186125;1234;43796;-88
2023/02/20 16:54:53;;;;;;;4.70;2.10;;;;;;;11.78;82.18;99801.20;186192;1235;59305;-85
2023/02/20 16:58:57;;;;;;;2.30;1.50;;;;;;;11.65;83.80;99796.84;186169;1235;44094;-85
2023/02/20 17:02:59;;;;;;;3.90;2.00;;;;;;;11.54;84.52;99786.73;186129;1234;43745;-84
2023/02/20 17:07:01;;;;;;;5.10;1.60;;;;;;;11.49;86.11;99803.33;186153;1235;43967;-85
2023/02/20 17:11:03;;;;;;;2.40;1.90;;;;;;;11.36;88.18;99793.15;186197;1234;44000;-85
2023/02/20 17:15:06;;;;;;;5.40;2.20;;;;;;;11.25;89.49;99807.69;186150;1235;58294;-84
2023/02/20 17:19:09;;;;;;;4.50;2.80;;;;;;;11.18;89.84;99777.23;186107;1234;43752;-85
2023/02/20 17:23:11;;;;;;;3.70;2.00;;;;;;;11.15;90.64;99808.79;186169;1237;43874;-86
2023/02/20 17:27:14;;;;;;;1.50;1.40;;;;;;;11.00;91.77;99815.83;186130;1235;43827;-85
2023/02/20 17:31:16;;;;;;;4.70;2.20;;;;;;;10.93;92.03;99816.76;186085;1236;43877;-85
2023/02/20 17:35:18;;;;;;;4.50;2.20;;;;;;;10.95;91.99;99829.20;186112;1234;58397;-85
2023/02/20 17:39:21;;;;;;;2.30;1.80;;;;;;;10.92;92.33;99840.65;186062;1233;43793;-85
2023/02/20 17:43:23;;;;;;;3.00;2.40;;;;;;;10.93;92.13;99838.59;186132;1233;43699;-84
2023/02/20 17:47:25;;;;;;;5.10;3.30;;;;;;;10.88;91.68;99846.81;185972;1233;44234;-85
2023/02/20 17:51:26;;;;;;;9.20;3.40;;;;;;;10.92;90.60;99859.61;186112;1234;43797;-85
2023/02/20 17:55:28;;;;;;;3.90;2.40;;;;;;;10.89;89.37;99852.80;186170;1235;59893;-85
2023/02/20 17:59:30;;;;;;;10.20;3.60;;;;;;;10.77;89.54;99860.23;186208;1232;43749;-85
2023/02/20 18:03:31;;;;;;;5.30;3.30;;;;;;;10.65;90.65;99858.25;186437;1232;43656;-84
2023/02/20 18:07:33;;;;;;;3.90;2.90;;;;;;;10.48;91.51;99858.39;186089;1232;44098;-83
2023/02/20 18:11:35;;;;;;;6.60;2.90;;;;;;;10.43;91.70;99836.98;186133;1233;43772;-83
2023/02/20 18:15:39;;;;;;;6.30;3.70;;;;;;;10.44;91.65;99833.91;186159;1234;58720;-84
2023/02/20 18:19:40;;;;;;;4.40;3.30;;;;;;;10.50;91.60;99817.97;186162;1235;43741;-84
2023/02/20 18:23:43;;;;;;;6.40;4.70;;;;;;;10.62;90.98;99815.98;186150;1232;43668;-83
2023/02/20 18:27:44;;;;;;;9.10;3.90;;;;;;;10.66;90.55;99822.89;186134;1236;43764;-83
2023/02/20 18:31:50;;;;;;;4.40;4.00;;;;;;;10.64;90.54;99820.83;186336;1235;43698;-84
2023/02/20 18:35:51;;;;;;;5.00;4.40;;;;;;;10.70;90.29;99823.60;186141;1235;59381;-84
2023/02/20 18:40:09;;;;;;;5.00;3.60;;;;;;;10.66;90.02;99828.23;186180;1234;43673;-85
2023/02/20 18:44:10;;;;;;;8.40;4.70;;;;;;;10.77;89.81;99833.50;186242;1234;44177;-83
2023/02/20 18:48:12;;;;;;;5.60;4.20;;;;;;;10.80;89.16;99814.08;186138;1232;44141;-83
2023/02/20 18:52:15;;;;;;;6.70;4.20;;;;;;;10.77;88.56;99822.85;186251;1234;43757;-85
2023/02/20 18:56:17;;;;;;;6.50;4.90;;;;;;;10.81;88.05;99815.17;186288;1235;58817;-85
2023/02/20 19:00:24;;;;;;;9.50;5.80;;;;;;;10.88;87.62;99818.65;186274;1234;43952;-84
2023/02/20 19:04:25;;;;;;;8.40;5.90;;;;;;;10.90;86.88;99814.20;186221;1235;44092;-84
2023/02/20 19:08:27;;;;;;;10.40;4.70;;;;;;;10.95;86.33;99818.04;186150;1235;43821;-84
2023/02/20 19:12:28;;;;;;;5.60;4.10;;;;;;;10.98;85.57;99808.15;186351;1234;43810;-84
2023/02/20 19:16:31;;;;;;;5.80;4.80;;;;;;;10.95;85.55;99809.86;186085;1235;59483;-85
2023/02/20 19:20:33;;;;;;;4.50;3.70;;;;;;;10.93;85.52;99802.95;186302;1235;43754;-84